Aviation Digital Data Service (ADDS)

Output produced by TAFs form (0014 UTC 25 November 2017)
found at http://www.aviationweather.gov/adds/tafs/
 
METAR text: ZSOF 250000Z 16003MPS CAVOK 08/M01 Q1025 NOSIG
Conditions at: ZSOF (HEFEI/XINGIAO , CN) observed 0000 UTC 25 November 2017
Temperature: 8.0°C (46°F)
Dewpoint: -1.0°C (30°F) [RH = 53%]
Pressure (altimeter): 30.27 inches Hg (1025.0 mb)
Winds: from the SSE (160 degrees) at 7 MPH (6 knots; 3.1 m/s)
Visibility: 6 or more miles (10+ km)
Ceiling: ceiling and visibility are OK
Clouds: unknown
Weather: no significant weather observed at this time

Forecast for: ZSOF (HEFEI/XINGIAO , CN)
Text: TAF ZSOF 241901Z 2500/2524 18004MPS 5000 HZ NSC TX18/2506Z TN05/2522Z
Forecast period: 0000 UTC 25 November 2017 to 0000 UTC 26 November 2017
Forecast type: FROM: standard forecast or significant change
Winds: from the S (180 degrees) at 9 MPH (8 knots; 4.2 m/s)
Visibility: 3 miles (5 km)
Clouds: not forecast
Weather: HZ  (haze)